createdAt,value
2022-11-07T00:01:18.397Z,13.38
2022-11-07T00:03:45.650Z,13.47
2022-11-07T00:06:12.799Z,13.49
2022-11-07T00:08:39.950Z,13.42
2022-11-07T00:11:07.329Z,13.55
2022-11-07T00:13:34.283Z,13.50
2022-11-07T00:16:06.980Z,13.43
2022-11-07T00:18:34.401Z,13.50
2022-11-07T00:21:02.764Z,13.34
2022-11-07T00:23:29.978Z,13.33
2022-11-07T00:26:09.295Z,13.35
2022-11-07T00:28:37.890Z,13.40
2022-11-07T00:31:06.349Z,13.40
2022-11-07T00:33:33.771Z,13.36
2022-11-07T00:36:01.032Z,13.38
2022-11-07T00:38:28.127Z,13.29
2022-11-07T00:41:03.362Z,13.34
2022-11-07T00:43:31.032Z,13.32
2022-11-07T00:46:01.101Z,13.35
2022-11-07T00:48:28.419Z,13.44
2022-11-07T00:50:55.293Z,13.35
2022-11-07T00:53:22.595Z,13.34
2022-11-07T00:55:49.570Z,13.39
2022-11-07T00:58:17.582Z,13.47
2022-11-07T01:00:45.121Z,13.44
2022-11-07T01:03:30.655Z,13.36
2022-11-07T01:05:59.656Z,13.39
2022-11-07T01:08:27.466Z,13.41
2022-11-07T01:10:54.928Z,13.31
2022-11-07T01:13:22.025Z,13.29
2022-11-07T01:15:49.020Z,13.33
2022-11-07T01:18:15.974Z,13.29
2022-11-07T01:20:43.324Z,13.34
2022-11-07T01:23:10.262Z,13.41
2022-11-07T01:25:38.230Z,13.34
2022-11-07T01:28:07.085Z,13.34
2022-11-07T01:30:34.223Z,13.42
2022-11-07T01:33:01.319Z,13.38
2022-11-07T01:35:28.217Z,13.46
2022-11-07T01:37:55.216Z,13.47
2022-11-07T01:40:22.057Z,13.42
2022-11-07T01:42:49.016Z,13.46
2022-11-07T01:45:28.354Z,13.50
2022-11-07T01:47:59.029Z,13.38
2022-11-07T01:50:26.783Z,13.34
2022-11-07T01:52:55.576Z,13.40
2022-11-07T01:55:31.590Z,13.44
2022-11-07T01:58:05.796Z,13.30
2022-11-07T02:00:33.768Z,13.33
2022-11-07T02:03:09.768Z,13.26
2022-11-07T02:05:42.764Z,13.30
2022-11-07T02:08:11.945Z,13.42
2022-11-07T02:10:40.863Z,13.40
2022-11-07T02:13:07.775Z,13.33
2022-11-07T02:15:36.654Z,13.34
2022-11-07T02:18:03.732Z,13.34
2022-11-07T02:20:30.598Z,13.19
2022-11-07T02:23:01.112Z,13.26
2022-11-07T02:25:29.835Z,13.29
2022-11-07T02:28:00.171Z,13.16
2022-11-07T02:30:33.968Z,13.23
2022-11-07T02:33:01.999Z,13.24
2022-11-07T02:35:42.481Z,13.16
2022-11-07T02:38:23.061Z,13.16
2022-11-07T02:40:52.804Z,13.17
2022-11-07T02:43:23.036Z,13.15
2022-11-07T02:45:51.373Z,13.24
2022-11-07T02:48:18.613Z,13.10
2022-11-07T02:50:46.541Z,13.18
2022-11-07T02:53:13.647Z,13.32
2022-11-07T02:55:40.781Z,13.27
2022-11-07T02:58:07.599Z,13.30
2022-11-07T03:00:34.434Z,13.35
2022-11-07T03:03:01.193Z,13.39
2022-11-07T03:25:58.602Z,12.70
2022-11-07T03:28:25.409Z,12.83
2022-11-07T03:30:52.514Z,13.01
2022-11-07T03:33:19.356Z,13.00
2022-11-07T03:35:46.486Z,13.14
2022-11-07T03:38:13.241Z,13.27
2022-11-07T03:40:40.188Z,13.30
2022-11-07T03:43:07.009Z,13.34
2022-11-07T03:45:33.806Z,13.27
2022-11-07T03:48:00.601Z,13.38
2022-11-07T03:50:27.398Z,13.39
2022-11-07T03:52:54.362Z,13.43
2022-11-07T03:55:21.222Z,13.48
2022-11-07T03:57:48.416Z,13.55
2022-11-07T04:00:16.284Z,13.47
2022-11-07T04:02:43.878Z,13.48
2022-11-07T04:05:12.312Z,13.61
2022-11-07T04:07:39.103Z,13.62
2022-11-07T04:10:06.344Z,13.59
2022-11-07T04:12:51.878Z,13.47
2022-11-07T04:15:37.120Z,13.44
2022-11-07T04:18:04.118Z,13.42
2022-11-07T04:20:31.178Z,13.40
2022-11-07T04:22:58.129Z,13.42
2022-11-07T04:25:45.061Z,13.47
2022-11-07T04:28:11.965Z,13.35
2022-11-07T04:30:38.908Z,13.35
2022-11-07T04:33:06.070Z,13.30
2022-11-07T04:35:33.721Z,13.36
2022-11-07T04:38:01.393Z,13.39
2022-11-07T04:40:29.820Z,13.45
2022-11-07T04:42:57.225Z,13.46
2022-11-07T04:45:24.492Z,13.37
2022-11-07T04:47:51.424Z,13.34
2022-11-07T04:50:19.811Z,13.51
2022-11-07T04:52:47.665Z,13.58
2022-11-07T04:55:24.326Z,13.54
2022-11-07T04:57:52.351Z,13.52
2022-11-07T05:00:20.226Z,13.44
2022-11-07T05:02:47.571Z,13.48
2022-11-07T05:05:14.590Z,13.38
2022-11-07T05:07:41.520Z,13.50
2022-11-07T05:10:16.253Z,13.48
2022-11-07T05:12:43.167Z,13.56
2022-11-07T05:15:10.146Z,13.61
2022-11-07T05:17:37.096Z,13.64
2022-11-07T05:20:04.361Z,13.66
2022-11-07T05:22:53.700Z,13.62
2022-11-07T05:25:23.218Z,13.38
2022-11-07T05:27:55.478Z,13.46
2022-11-07T05:30:22.537Z,13.44
2022-11-07T05:32:49.508Z,13.48
2022-11-07T05:35:16.428Z,13.52
2022-11-07T05:37:43.318Z,13.47
2022-11-07T05:40:10.940Z,13.53
2022-11-07T05:42:37.875Z,13.30
2022-11-07T05:45:05.354Z,13.18
2022-11-07T05:47:32.210Z,13.21
2022-11-07T05:49:59.120Z,13.14
2022-11-07T05:52:26.118Z,13.21
2022-11-07T05:54:53.230Z,13.24
2022-11-07T05:57:20.174Z,13.27
2022-11-07T05:59:47.112Z,13.23
2022-11-07T06:02:14.351Z,13.28
2022-11-07T06:04:41.187Z,13.26
2022-11-07T06:07:08.148Z,13.39
2022-11-07T06:09:35.105Z,13.39
2022-11-07T06:12:03.887Z,13.23
2022-11-07T06:14:30.753Z,13.29
2022-11-07T06:16:57.615Z,13.20
2022-11-07T06:19:24.585Z,13.19
2022-11-07T06:21:51.567Z,13.21
2022-11-07T06:24:20.147Z,13.32
2022-11-07T06:26:47.164Z,13.28
2022-11-07T06:29:14.049Z,13.33
2022-11-07T06:31:41.038Z,13.35
2022-11-07T06:34:07.976Z,13.37
2022-11-07T06:36:34.926Z,13.26
2022-11-07T06:39:01.829Z,13.25
2022-11-07T06:41:28.933Z,13.18
2022-11-07T06:43:55.820Z,13.34
2022-11-07T06:46:23.439Z,13.39
2022-11-07T06:48:50.314Z,13.48
2022-11-07T06:51:17.301Z,13.62
2022-11-07T06:53:44.254Z,13.60
2022-11-07T06:56:14.500Z,13.55
2022-11-07T06:58:41.717Z,13.63
2022-11-07T07:01:13.401Z,13.70
2022-11-07T07:03:41.106Z,13.58
2022-11-07T07:06:12.267Z,13.60
2022-11-07T07:08:39.551Z,13.59
2022-11-07T07:11:12.699Z,13.62
2022-11-07T07:13:40.149Z,13.61
2022-11-07T07:16:07.805Z,13.66
2022-11-07T07:18:35.582Z,13.80
2022-11-07T07:21:09.707Z,13.87
2022-11-07T07:23:38.698Z,13.93
2022-11-07T07:26:07.676Z,13.95
2022-11-07T07:28:36.566Z,14.24
2022-11-07T07:31:08.639Z,14.39
2022-11-07T07:33:35.828Z,14.16
2022-11-07T07:36:02.834Z,14.29
2022-11-07T07:38:30.092Z,14.51
2022-11-07T07:40:58.781Z,14.52
2022-11-07T07:43:27.196Z,14.62
2022-11-07T07:45:54.045Z,14.79
2022-11-07T07:48:20.940Z,14.97
2022-11-07T07:50:49.828Z,14.97
2022-11-07T07:53:17.239Z,14.93
2022-11-07T07:55:44.606Z,15.23
2022-11-07T07:58:12.820Z,15.44
2022-11-07T08:00:40.834Z,15.73
2022-11-07T08:03:10.614Z,16.25
2022-11-07T08:05:38.818Z,16.85
2022-11-07T08:08:08.040Z,16.69
2022-11-07T08:10:41.905Z,16.98
2022-11-07T08:13:09.539Z,17.20
2022-11-07T08:15:36.530Z,17.00
2022-11-07T08:18:06.245Z,16.79
2022-11-07T08:20:33.184Z,16.48
2022-11-07T08:23:04.926Z,16.11
2022-11-07T08:25:32.126Z,15.96
2022-11-07T08:27:59.549Z,15.98
2022-11-07T08:30:27.184Z,15.65
2022-11-07T08:32:54.729Z,15.63
2022-11-07T08:35:21.624Z,15.57
2022-11-07T08:37:48.532Z,15.61
2022-11-07T08:40:15.364Z,15.80
2022-11-07T08:42:42.286Z,15.71
2022-11-07T08:45:09.600Z,16.16
2022-11-07T08:47:36.569Z,16.71
2022-11-07T08:50:04.203Z,16.54
2022-11-07T08:52:31.316Z,16.96
2022-11-07T08:54:58.225Z,16.92
2022-11-07T08:57:25.253Z,17.01
2022-11-07T08:59:52.169Z,16.79
2022-11-07T09:05:06.165Z,16.91
2022-11-07T09:07:33.101Z,16.86
2022-11-07T09:10:00.115Z,16.72
2022-11-07T09:12:26.995Z,16.80
2022-11-07T09:14:53.794Z,16.81
2022-11-07T09:17:20.633Z,17.07
2022-11-07T09:19:47.586Z,17.10
2022-11-07T09:22:15.052Z,17.19
2022-11-07T09:24:42.002Z,16.93
2022-11-07T09:27:08.935Z,17.05
2022-11-07T09:29:36.225Z,16.90
2022-11-07T09:32:17.509Z,16.58
2022-11-07T09:34:55.932Z,16.67
2022-11-07T09:37:24.096Z,16.48
2022-11-07T09:39:51.361Z,16.49
2022-11-07T09:42:45.506Z,16.87
2022-11-07T09:45:14.082Z,17.24
2022-11-07T09:47:45.628Z,17.13
2022-11-07T09:50:23.410Z,17.31
2022-11-07T09:53:02.083Z,17.83
2022-11-07T09:55:34.118Z,18.34
2022-11-07T09:58:05.284Z,22.04
2022-11-07T10:00:33.954Z,24.63
2022-11-07T10:03:02.578Z,23.78
2022-11-07T10:05:55.937Z,25.39
2022-11-07T10:08:28.018Z,26.26
2022-11-07T10:10:57.560Z,28.16
2022-11-07T10:13:39.782Z,31.08
2022-11-07T10:16:14.409Z,32.47
2022-11-07T10:18:53.259Z,29.47
2022-11-07T10:21:50.422Z,30.47
2022-11-07T10:24:32.788Z,27.65
2022-11-07T10:27:01.260Z,24.68
2022-11-07T10:29:52.484Z,22.88
2022-11-07T10:32:28.448Z,25.61
2022-11-07T10:35:26.342Z,28.38
2022-11-07T10:38:00.784Z,28.67
2022-11-07T10:40:40.577Z,31.48
2022-11-07T10:43:14.844Z,33.11
2022-11-07T10:45:42.455Z,32.37
2022-11-07T10:48:13.426Z,31.69
2022-11-07T10:50:40.438Z,29.74
2022-11-07T10:53:09.806Z,25.27
2022-11-07T10:55:45.805Z,24.66
2022-11-07T10:58:21.599Z,25.74
2022-11-07T11:00:57.669Z,26.18
2022-11-07T11:03:43.169Z,28.91
2022-11-07T11:06:11.158Z,28.84
2022-11-07T11:08:38.923Z,28.92
2022-11-07T11:11:30.033Z,29.81
2022-11-07T11:14:13.946Z,31.94
2022-11-07T11:16:42.483Z,33.12
2022-11-07T11:19:35.166Z,34.48
2022-11-07T11:22:05.961Z,32.79
2022-11-07T11:24:39.720Z,31.53
2022-11-07T11:27:23.426Z,29.98
2022-11-07T11:29:59.908Z,29.47
2022-11-07T11:32:32.652Z,28.97
2022-11-07T11:35:12.190Z,26.73
2022-11-07T11:37:43.019Z,25.07
2022-11-07T11:40:22.473Z,25.28
2022-11-07T11:42:55.789Z,23.68
2022-11-07T11:45:40.782Z,23.27
2022-11-07T11:48:28.866Z,24.11
2022-11-07T11:51:18.996Z,26.74
2022-11-07T11:53:46.003Z,26.99
2022-11-07T11:56:38.851Z,25.44
2022-11-07T11:59:27.421Z,25.42
2022-11-07T12:02:32.100Z,26.68
2022-11-07T12:05:17.708Z,26.11
2022-11-07T12:08:02.579Z,24.94
2022-11-07T12:10:35.831Z,21.51
2022-11-07T12:13:16.369Z,20.40
2022-11-07T12:16:02.238Z,19.57
2022-11-07T12:18:29.232Z,19.09
2022-11-07T12:21:07.640Z,18.35
2022-11-07T12:23:54.064Z,17.53
2022-11-07T12:26:41.921Z,17.32
2022-11-07T12:29:14.723Z,17.26
2022-11-07T12:31:41.553Z,17.03
2022-11-07T12:34:20.618Z,17.01
2022-11-07T12:37:11.945Z,16.91
2022-11-07T12:40:05.464Z,16.50
2022-11-07T12:42:59.781Z,16.48
2022-11-07T12:45:51.270Z,16.49
2022-11-07T12:48:23.994Z,16.49
2022-11-07T12:51:00.718Z,16.33
2022-11-07T12:54:00.056Z,16.27
2022-11-07T12:56:36.338Z,16.19
2022-11-07T12:59:11.185Z,16.20
2022-11-07T13:01:49.937Z,16.03
2022-11-07T13:04:53.770Z,16.12
2022-11-07T13:07:31.086Z,16.10
2022-11-07T13:10:28.923Z,16.03
2022-11-07T13:13:28.128Z,16.04
2022-11-07T13:16:14.476Z,15.96
2022-11-07T13:21:13.691Z,16.00
2022-11-07T13:23:40.787Z,15.95
2022-11-07T13:26:32.577Z,15.97
2022-11-07T13:28:58.377Z,15.94
2022-11-07T13:31:40.434Z,15.90
2022-11-07T13:34:19.618Z,15.80
2022-11-07T13:36:48.373Z,15.77
2022-11-07T13:39:16.028Z,15.69
2022-11-07T13:41:46.798Z,15.68
2022-11-07T13:44:28.377Z,15.53
2022-11-07T13:47:04.517Z,15.50
2022-11-07T13:49:44.215Z,15.60
2022-11-07T13:52:48.724Z,15.54
2022-11-07T13:55:22.405Z,15.38
2022-11-07T13:57:56.489Z,15.23
2022-11-07T14:00:23.733Z,15.17
2022-11-07T14:02:53.534Z,15.20
2022-11-07T14:05:27.119Z,15.11
2022-11-07T14:08:08.294Z,15.14
2022-11-07T14:10:48.795Z,15.17
2022-11-07T14:13:27.413Z,15.00
2022-11-07T14:16:00.823Z,14.96
2022-11-07T14:18:50.090Z,14.86
2022-11-07T14:21:31.929Z,14.71
2022-11-07T14:23:59.241Z,14.65
2022-11-07T14:26:28.244Z,14.64
2022-11-07T14:28:57.022Z,14.56
2022-11-07T14:31:35.951Z,14.43
2022-11-07T14:34:25.672Z,14.39
2022-11-07T14:36:56.096Z,14.29
2022-11-07T14:39:24.757Z,14.23
2022-11-07T14:41:54.602Z,14.21
2022-11-07T14:44:47.710Z,14.07
2022-11-07T14:47:20.182Z,13.98
2022-11-07T14:49:49.852Z,13.94
2022-11-07T14:52:21.759Z,13.88
2022-11-07T14:54:55.290Z,13.78
2022-11-07T14:57:22.412Z,13.68
2022-11-07T14:59:49.568Z,13.61
2022-11-07T15:02:27.204Z,13.48
2022-11-07T15:05:00.958Z,13.46
2022-11-07T15:07:35.426Z,13.39
2022-11-07T15:10:26.222Z,13.30
2022-11-07T15:27:33.582Z,12.32
2022-11-07T15:30:02.209Z,12.40
2022-11-07T15:32:35.649Z,12.45
2022-11-07T15:35:42.435Z,12.47
2022-11-07T15:38:02.263Z,12.46
2022-11-07T15:40:29.971Z,12.47
2022-11-07T15:42:57.068Z,12.43
2022-11-07T15:45:24.134Z,12.36
2022-11-07T15:47:51.630Z,12.29
2022-11-07T15:50:21.994Z,12.20
2022-11-07T15:52:49.719Z,12.17
2022-11-07T15:55:19.526Z,12.13
2022-11-07T15:57:49.236Z,12.11
2022-11-07T16:00:24.998Z,12.11
2022-11-07T16:02:52.342Z,12.00
2022-11-07T16:05:19.508Z,11.93
2022-11-07T16:07:46.858Z,11.93
2022-11-07T16:10:20.885Z,11.89
2022-11-07T16:12:49.054Z,11.89
2022-11-07T16:15:18.044Z,11.80
2022-11-07T16:17:45.028Z,11.77
2022-11-07T16:20:33.511Z,11.70
2022-11-07T16:23:02.475Z,11.55
2022-11-07T16:25:30.558Z,11.56
2022-11-07T16:28:00.709Z,11.47
2022-11-07T16:30:28.211Z,11.47
2022-11-07T16:32:55.333Z,11.41
2022-11-07T16:35:22.472Z,11.37
2022-11-07T16:37:49.878Z,11.29
2022-11-07T16:40:19.741Z,11.24
2022-11-07T16:42:47.731Z,11.25
2022-11-07T16:45:22.551Z,11.20
2022-11-07T16:47:49.476Z,11.14
2022-11-07T16:50:17.613Z,11.10
2022-11-07T16:52:44.511Z,11.06
2022-11-07T16:55:16.687Z,11.05
2022-11-07T16:57:44.507Z,11.02
2022-11-07T17:00:23.313Z,10.96
2022-11-07T17:02:50.668Z,10.89
2022-11-07T17:05:17.746Z,10.94
2022-11-07T17:07:44.657Z,10.89
2022-11-07T17:10:16.817Z,10.89
2022-11-07T17:12:43.929Z,10.82
2022-11-07T17:15:11.153Z,10.82
2022-11-07T17:17:38.203Z,10.76
2022-11-07T17:20:06.792Z,10.82
2022-11-07T17:22:33.747Z,10.79
2022-11-07T17:25:00.590Z,10.76
2022-11-07T17:27:27.562Z,10.85
2022-11-07T17:29:55.434Z,10.77
2022-11-07T17:32:22.323Z,10.74
2022-11-07T17:35:04.658Z,10.65
2022-11-07T17:37:36.888Z,10.58
2022-11-07T17:40:04.960Z,10.63
2022-11-07T17:42:37.538Z,10.58
2022-11-07T17:45:06.022Z,10.67
2022-11-07T17:47:34.535Z,10.57
2022-11-07T17:50:01.827Z,10.62
2022-11-07T17:52:28.648Z,10.61
2022-11-07T17:54:55.514Z,10.54
2022-11-07T17:57:22.731Z,10.49
2022-11-07T17:59:49.632Z,10.52
2022-11-07T18:02:19.126Z,10.47
2022-11-07T18:04:46.900Z,10.40
2022-11-07T18:07:13.896Z,10.45
2022-11-07T18:09:41.414Z,10.45
2022-11-07T18:12:08.977Z,10.48
2022-11-07T18:14:36.213Z,10.46
2022-11-07T18:17:03.096Z,10.43
2022-11-07T18:19:30.205Z,10.42
2022-11-07T18:21:57.053Z,10.44
2022-11-07T18:24:24.368Z,10.37
2022-11-07T18:26:51.826Z,10.33
2022-11-07T18:29:19.527Z,10.27
2022-11-07T18:31:50.658Z,10.34
2022-11-07T18:34:17.600Z,10.41
2022-11-07T18:36:45.472Z,10.40
2022-11-07T18:39:18.403Z,10.40
2022-11-07T18:41:45.734Z,10.40
2022-11-07T18:44:12.928Z,10.41
2022-11-07T18:46:40.483Z,10.49
2022-11-07T18:49:07.652Z,10.56
2022-11-07T18:51:34.882Z,10.42
2022-11-07T18:54:03.664Z,10.43
2022-11-07T18:56:30.844Z,10.39
2022-11-07T18:58:57.790Z,10.38
2022-11-07T19:01:30.880Z,10.40
2022-11-07T19:04:00.445Z,10.32
2022-11-07T19:06:29.643Z,10.37
2022-11-07T19:08:56.585Z,10.27
2022-11-07T19:11:29.450Z,10.34
2022-11-07T19:13:59.966Z,10.21
2022-11-07T19:16:26.751Z,10.12
2022-11-07T19:18:53.689Z,10.02
2022-11-07T19:21:21.727Z,9.93
2022-11-07T19:23:50.083Z,10.00
2022-11-07T19:26:19.270Z,9.91
2022-11-07T19:28:46.913Z,9.93
2022-11-07T19:31:14.144Z,9.87
2022-11-07T19:33:41.908Z,9.84
2022-11-07T19:36:17.052Z,9.84
2022-11-07T19:38:44.770Z,9.80
2022-11-07T19:41:13.569Z,9.82
2022-11-07T19:43:42.678Z,9.83
2022-11-07T19:46:16.192Z,9.83
2022-11-07T19:48:44.130Z,9.76
2022-11-07T19:51:21.518Z,9.74
2022-11-07T19:53:58.288Z,9.67
2022-11-07T19:56:28.001Z,9.60
2022-11-07T19:58:55.287Z,9.55
2022-11-07T20:01:29.779Z,9.45
2022-11-07T20:03:57.467Z,9.39
2022-11-07T20:06:33.095Z,9.40
2022-11-07T20:09:01.552Z,9.33
2022-11-07T20:11:28.389Z,9.33
2022-11-07T20:13:58.786Z,9.28
2022-11-07T20:16:28.782Z,9.21
2022-11-07T20:18:55.675Z,9.22
2022-11-07T20:21:23.555Z,9.20
2022-11-07T20:23:53.776Z,9.08
2022-11-07T20:26:24.577Z,9.09
2022-11-07T20:28:52.263Z,9.01
2022-11-07T20:31:23.026Z,8.95
2022-11-07T20:33:49.953Z,8.91
2022-11-07T20:36:17.825Z,8.88
2022-11-07T20:38:45.233Z,8.89
2022-11-07T20:41:13.666Z,8.85
2022-11-07T20:43:41.543Z,8.82
2022-11-07T20:46:11.298Z,8.79
2022-11-07T20:48:39.011Z,8.82
2022-11-07T20:51:10.818Z,8.79
2022-11-07T20:53:38.683Z,8.76
2022-11-07T20:56:08.138Z,8.78
2022-11-07T20:58:37.647Z,8.77
2022-11-07T21:01:05.925Z,8.75
2022-11-07T21:03:34.599Z,8.76
2022-11-07T21:06:01.648Z,8.77
2022-11-07T21:08:31.886Z,8.70
2022-11-07T21:11:01.401Z,8.75
2022-11-07T21:13:28.257Z,8.73
2022-11-07T21:15:55.058Z,8.70
2022-11-07T21:18:21.976Z,8.66
2022-11-07T21:20:48.835Z,8.68
2022-11-07T21:23:16.732Z,8.65
2022-11-07T21:25:45.803Z,8.58
2022-11-07T21:28:17.502Z,8.60
2022-11-07T21:30:46.135Z,8.60
2022-11-07T21:33:13.315Z,8.59
2022-11-07T21:35:42.376Z,8.62
2022-11-07T21:38:09.240Z,8.53
2022-11-07T21:40:36.689Z,8.51
2022-11-07T21:43:03.620Z,8.47
2022-11-07T21:45:30.563Z,8.51
2022-11-07T21:47:57.404Z,8.45
2022-11-07T21:50:43.501Z,8.43
2022-11-07T21:53:10.787Z,8.39
2022-11-07T21:55:37.713Z,8.36
2022-11-07T21:58:04.670Z,8.32
2022-11-07T22:00:35.886Z,8.29
2022-11-07T22:03:04.154Z,8.24
2022-11-07T22:05:31.119Z,8.22
2022-11-07T22:07:58.073Z,8.20
2022-11-07T22:10:29.703Z,8.18
2022-11-07T22:12:56.624Z,8.20
2022-11-07T22:15:23.518Z,8.16
2022-11-07T22:17:50.480Z,8.18
2022-11-07T22:20:17.429Z,8.30
2022-11-07T22:22:44.250Z,8.36
2022-11-07T22:25:11.190Z,8.28
2022-11-07T22:27:37.986Z,8.28
2022-11-07T22:30:06.105Z,8.22
2022-11-07T22:32:32.960Z,8.12
2022-11-07T22:35:01.682Z,8.14
2022-11-07T22:37:31.859Z,8.12
2022-11-07T22:39:59.360Z,8.04
2022-11-07T22:42:28.582Z,8.00
2022-11-07T22:44:55.483Z,8.03
2022-11-07T22:47:22.278Z,8.02
2022-11-07T22:49:49.135Z,8.08
2022-11-07T22:52:16.007Z,8.08
2022-11-07T22:54:43.265Z,7.98
2022-11-07T22:57:14.097Z,7.97
2022-11-07T22:59:43.629Z,7.98
2022-11-07T23:02:10.509Z,7.94
2022-11-07T23:04:37.435Z,7.89
2022-11-07T23:07:04.429Z,7.87
2022-11-07T23:09:31.423Z,7.88
2022-11-07T23:11:58.319Z,7.89
2022-11-07T23:14:26.295Z,7.91
2022-11-07T23:16:57.939Z,7.87
2022-11-07T23:19:26.962Z,7.83
2022-11-07T23:21:55.272Z,7.81
2022-11-07T23:24:22.824Z,7.81
2022-11-07T23:26:49.773Z,7.76
2022-11-07T23:29:22.977Z,7.75
2022-11-07T23:31:51.519Z,7.74
2022-11-07T23:34:20.393Z,7.72
2022-11-07T23:36:50.316Z,7.70
2022-11-07T23:39:19.860Z,7.66
2022-11-07T23:41:46.944Z,7.70
2022-11-07T23:44:15.142Z,7.78
2022-11-07T23:47:00.728Z,7.75
2022-11-07T23:49:46.026Z,7.77
2022-11-07T23:52:13.202Z,7.70
2022-11-07T23:54:58.705Z,7.66
2022-11-07T23:57:25.640Z,7.64
